sensor_id;sensor_type;location;lat;lon;timestamp;P1;durP1;ratioP1;P2;durP2;ratioP2
33347;SDS011;19707;51.158;17.124;2024-03-25T00:00:14;7.70;;;4.70;;
33347;SDS011;19707;51.158;17.124;2024-03-25T00:03:37;7.40;;;4.50;;
33347;SDS011;19707;51.158;17.124;2024-03-25T00:06:42;7.00;;;4.10;;
33347;SDS011;19707;51.158;17.124;2024-03-25T00:12:56;5.50;;;4.10;;
33347;SDS011;19707;51.158;17.124;2024-03-25T00:16:06;6.10;;;4.30;;
33347;SDS011;19707;51.158;17.124;2024-03-25T00:19:13;7.40;;;4.10;;
33347;SDS011;19707;51.158;17.124;2024-03-25T00:22:21;7.10;;;3.60;;
33347;SDS011;19707;51.158;17.124;2024-03-25T00:25:32;5.40;;;3.90;;
33347;SDS011;19707;51.158;17.124;2024-03-25T00:28:38;5.80;;;4.50;;
33347;SDS011;19707;51.158;17.124;2024-03-25T00:31:43;5.60;;;3.50;;
33347;SDS011;19707;51.158;17.124;2024-03-25T00:34:51;4.00;;;3.50;;
33347;SDS011;19707;51.158;17.124;2024-03-25T00:37:58;5.60;;;3.60;;
33347;SDS011;19707;51.158;17.124;2024-03-25T00:41:05;4.70;;;3.20;;
33347;SDS011;19707;51.158;17.124;2024-03-25T00:44:12;4.60;;;3.20;;
33347;SDS011;19707;51.158;17.124;2024-03-25T00:47:20;5.10;;;3.10;;
33347;SDS011;19707;51.158;17.124;2024-03-25T00:50:26;5.00;;;3.20;;
33347;SDS011;19707;51.158;17.124;2024-03-25T00:53:35;4.30;;;2.90;;
33347;SDS011;19707;51.158;17.124;2024-03-25T00:56:45;3.80;;;2.60;;
33347;SDS011;19707;51.158;17.124;2024-03-25T00:59:55;3.30;;;2.20;;
33347;SDS011;19707;51.158;17.124;2024-03-25T01:02:59;3.90;;;3.20;;
33347;SDS011;19707;51.158;17.124;2024-03-25T01:06:11;3.40;;;2.50;;
33347;SDS011;19707;51.158;17.124;2024-03-25T01:09:14;4.50;;;2.40;;
33347;SDS011;19707;51.158;17.124;2024-03-25T01:12:21;3.30;;;1.80;;
33347;SDS011;19707;51.158;17.124;2024-03-25T01:15:25;3.10;;;2.00;;
33347;SDS011;19707;51.158;17.124;2024-03-25T01:18:41;3.00;;;1.90;;
33347;SDS011;19707;51.158;17.124;2024-03-25T01:21:52;2.00;;;1.40;;
33347;SDS011;19707;51.158;17.124;2024-03-25T01:28:06;2.50;;;2.00;;
33347;SDS011;19707;51.158;17.124;2024-03-25T01:31:10;2.50;;;2.10;;
33347;SDS011;19707;51.158;17.124;2024-03-25T01:34:17;3.90;;;1.70;;
33347;SDS011;19707;51.158;17.124;2024-03-25T01:40:34;2.80;;;2.10;;
33347;SDS011;19707;51.158;17.124;2024-03-25T01:43:44;2.70;;;2.10;;
33347;SDS011;19707;51.158;17.124;2024-03-25T01:46:49;2.80;;;2.50;;
33347;SDS011;19707;51.158;17.124;2024-03-25T01:49:58;4.40;;;2.60;;
33347;SDS011;19707;51.158;17.124;2024-03-25T01:56:16;3.90;;;2.60;;
33347;SDS011;19707;51.158;17.124;2024-03-25T02:02:39;2.90;;;2.40;;
33347;SDS011;19707;51.158;17.124;2024-03-25T02:05:54;3.60;;;2.30;;
33347;SDS011;19707;51.158;17.124;2024-03-25T02:09:02;3.80;;;3.30;;
33347;SDS011;19707;51.158;17.124;2024-03-25T02:12:11;5.00;;;3.50;;
33347;SDS011;19707;51.158;17.124;2024-03-25T02:15:19;6.50;;;5.40;;
33347;SDS011;19707;51.158;17.124;2024-03-25T02:18:24;6.10;;;3.40;;
33347;SDS011;19707;51.158;17.124;2024-03-25T02:21:28;5.60;;;4.00;;
33347;SDS011;19707;51.158;17.124;2024-03-25T02:24:33;7.30;;;4.00;;
33347;SDS011;19707;51.158;17.124;2024-03-25T02:27:40;6.60;;;4.10;;
33347;SDS011;19707;51.158;17.124;2024-03-25T02:30:47;7.40;;;4.50;;
33347;SDS011;19707;51.158;17.124;2024-03-25T02:34:00;4.10;;;3.60;;
33347;SDS011;19707;51.158;17.124;2024-03-25T02:41:35;5.90;;;4.00;;
33347;SDS011;19707;51.158;17.124;2024-03-25T02:44:42;3.50;;;2.60;;
33347;SDS011;19707;51.158;17.124;2024-03-25T02:47:50;3.60;;;3.10;;
33347;SDS011;19707;51.158;17.124;2024-03-25T02:51:01;4.30;;;3.60;;
33347;SDS011;19707;51.158;17.124;2024-03-25T02:54:10;5.80;;;4.60;;
33347;SDS011;19707;51.158;17.124;2024-03-25T02:57:18;5.20;;;4.40;;
33347;SDS011;19707;51.158;17.124;2024-03-25T03:00:23;4.80;;;3.20;;
33347;SDS011;19707;51.158;17.124;2024-03-25T03:03:32;4.30;;;3.50;;
33347;SDS011;19707;51.158;17.124;2024-03-25T03:06:37;4.80;;;3.40;;
33347;SDS011;19707;51.158;17.124;2024-03-25T03:09:42;3.80;;;2.60;;
33347;SDS011;19707;51.158;17.124;2024-03-25T03:12:51;4.90;;;3.30;;
33347;SDS011;19707;51.158;17.124;2024-03-25T03:15:57;5.00;;;3.20;;
33347;SDS011;19707;51.158;17.124;2024-03-25T03:19:03;4.10;;;2.80;;
33347;SDS011;19707;51.158;17.124;2024-03-25T03:22:12;4.30;;;2.80;;
33347;SDS011;19707;51.158;17.124;2024-03-25T03:25:19;3.10;;;2.10;;
33347;SDS011;19707;51.158;17.124;2024-03-25T03:28:25;4.50;;;3.20;;
33347;SDS011;19707;51.158;17.124;2024-03-25T03:31:32;3.40;;;2.60;;
33347;SDS011;19707;51.158;17.124;2024-03-25T03:34:41;3.70;;;2.90;;
33347;SDS011;19707;51.158;17.124;2024-03-25T03:37:52;3.20;;;2.20;;
33347;SDS011;19707;51.158;17.124;2024-03-25T03:40:58;3.70;;;2.20;;
33347;SDS011;19707;51.158;17.124;2024-03-25T03:44:08;3.10;;;2.30;;
33347;SDS011;19707;51.158;17.124;2024-03-25T03:47:17;3.10;;;2.30;;
33347;SDS011;19707;51.158;17.124;2024-03-25T03:50:28;3.10;;;2.50;;
33347;SDS011;19707;51.158;17.124;2024-03-25T03:53:35;3.40;;;2.10;;
33347;SDS011;19707;51.158;17.124;2024-03-25T03:56:46;2.50;;;1.90;;
33347;SDS011;19707;51.158;17.124;2024-03-25T03:59:53;3.70;;;2.50;;
33347;SDS011;19707;51.158;17.124;2024-03-25T04:03:02;2.40;;;1.90;;
33347;SDS011;19707;51.158;17.124;2024-03-25T04:06:08;2.00;;;1.80;;
33347;SDS011;19707;51.158;17.124;2024-03-25T04:09:15;1.90;;;1.70;;
33347;SDS011;19707;51.158;17.124;2024-03-25T04:12:22;2.80;;;1.90;;
33347;SDS011;19707;51.158;17.124;2024-03-25T04:15:33;2.60;;;1.40;;
33347;SDS011;19707;51.158;17.124;2024-03-25T04:18:39;2.10;;;1.30;;
33347;SDS011;19707;51.158;17.124;2024-03-25T04:21:44;2.50;;;1.40;;
33347;SDS011;19707;51.158;17.124;2024-03-25T04:24:52;2.50;;;1.40;;
33347;SDS011;19707;51.158;17.124;2024-03-25T04:27:59;2.90;;;1.70;;
33347;SDS011;19707;51.158;17.124;2024-03-25T04:31:05;2.40;;;1.60;;
33347;SDS011;19707;51.158;17.124;2024-03-25T04:34:19;3.20;;;2.30;;
33347;SDS011;19707;51.158;17.124;2024-03-25T04:37:25;3.00;;;2.10;;
33347;SDS011;19707;51.158;17.124;2024-03-25T04:40:34;3.50;;;2.10;;
33347;SDS011;19707;51.158;17.124;2024-03-25T04:43:43;2.30;;;2.00;;
33347;SDS011;19707;51.158;17.124;2024-03-25T04:46:51;2.40;;;1.60;;
33347;SDS011;19707;51.158;17.124;2024-03-25T04:49:57;3.10;;;1.90;;
33347;SDS011;19707;51.158;17.124;2024-03-25T04:53:04;2.90;;;1.90;;
33347;SDS011;19707;51.158;17.124;2024-03-25T04:56:12;3.50;;;2.10;;
33347;SDS011;19707;51.158;17.124;2024-03-25T04:59:18;3.20;;;2.10;;
33347;SDS011;19707;51.158;17.124;2024-03-25T05:02:26;4.00;;;2.60;;
33347;SDS011;19707;51.158;17.124;2024-03-25T05:05:34;4.90;;;2.70;;
33347;SDS011;19707;51.158;17.124;2024-03-25T05:08:41;4.70;;;2.50;;
33347;SDS011;19707;51.158;17.124;2024-03-25T05:11:58;3.80;;;2.40;;
33347;SDS011;19707;51.158;17.124;2024-03-25T05:15:04;3.60;;;2.50;;
33347;SDS011;19707;51.158;17.124;2024-03-25T05:18:11;3.60;;;2.10;;
33347;SDS011;19707;51.158;17.124;2024-03-25T05:21:19;4.50;;;2.20;;
33347;SDS011;19707;51.158;17.124;2024-03-25T05:24:25;3.80;;;2.50;;
33347;SDS011;19707;51.158;17.124;2024-03-25T05:27:33;3.10;;;1.80;;
33347;SDS011;19707;51.158;17.124;2024-03-25T05:30:47;3.60;;;2.30;;
33347;SDS011;19707;51.158;17.124;2024-03-25T05:37:09;4.10;;;2.00;;
33347;SDS011;19707;51.158;17.124;2024-03-25T05:40:13;3.70;;;2.20;;
33347;SDS011;19707;51.158;17.124;2024-03-25T05:43:22;3.00;;;2.30;;
33347;SDS011;19707;51.158;17.124;2024-03-25T05:46:25;3.10;;;1.70;;
33347;SDS011;19707;51.158;17.124;2024-03-25T05:49:30;2.20;;;1.80;;
33347;SDS011;19707;51.158;17.124;2024-03-25T05:52:39;2.40;;;1.70;;
33347;SDS011;19707;51.158;17.124;2024-03-25T05:55:43;3.20;;;1.30;;
33347;SDS011;19707;51.158;17.124;2024-03-25T05:58:49;2.10;;;1.40;;
33347;SDS011;19707;51.158;17.124;2024-03-25T06:01:57;1.80;;;1.40;;
33347;SDS011;19707;51.158;17.124;2024-03-25T06:05:08;1.70;;;1.30;;
33347;SDS011;19707;51.158;17.124;2024-03-25T06:08:14;2.30;;;1.60;;
33347;SDS011;19707;51.158;17.124;2024-03-25T06:11:52;2.40;;;1.90;;
33347;SDS011;19707;51.158;17.124;2024-03-25T06:15:04;2.00;;;1.70;;
33347;SDS011;19707;51.158;17.124;2024-03-25T06:18:19;2.80;;;2.00;;
33347;SDS011;19707;51.158;17.124;2024-03-25T06:21:21;2.50;;;2.00;;
33347;SDS011;19707;51.158;17.124;2024-03-25T06:24:41;2.60;;;1.50;;
33347;SDS011;19707;51.158;17.124;2024-03-25T06:27:55;3.20;;;1.80;;
33347;SDS011;19707;51.158;17.124;2024-03-25T06:31:04;3.30;;;1.60;;
33347;SDS011;19707;51.158;17.124;2024-03-25T06:34:29;3.20;;;1.80;;
33347;SDS011;19707;51.158;17.124;2024-03-25T06:37:37;2.70;;;2.10;;
33347;SDS011;19707;51.158;17.124;2024-03-25T06:40:44;3.40;;;2.20;;
33347;SDS011;19707;51.158;17.124;2024-03-25T06:43:54;2.90;;;1.60;;
33347;SDS011;19707;51.158;17.124;2024-03-25T06:46:57;2.80;;;1.90;;
33347;SDS011;19707;51.158;17.124;2024-03-25T06:50:03;2.00;;;1.40;;
33347;SDS011;19707;51.158;17.124;2024-03-25T06:53:11;1.60;;;1.30;;
33347;SDS011;19707;51.158;17.124;2024-03-25T06:56:20;2.50;;;1.50;;
33347;SDS011;19707;51.158;17.124;2024-03-25T06:59:30;1.70;;;0.90;;
33347;SDS011;19707;51.158;17.124;2024-03-25T07:02:44;1.60;;;1.50;;
33347;SDS011;19707;51.158;17.124;2024-03-25T07:05:53;2.20;;;1.60;;
33347;SDS011;19707;51.158;17.124;2024-03-25T07:09:00;2.00;;;1.70;;
33347;SDS011;19707;51.158;17.124;2024-03-25T07:12:12;3.30;;;1.60;;
33347;SDS011;19707;51.158;17.124;2024-03-25T07:15:16;2.20;;;1.90;;
33347;SDS011;19707;51.158;17.124;2024-03-25T07:18:21;2.20;;;1.60;;
33347;SDS011;19707;51.158;17.124;2024-03-25T07:21:26;3.30;;;2.00;;
33347;SDS011;19707;51.158;17.124;2024-03-25T07:24:31;3.10;;;2.30;;
33347;SDS011;19707;51.158;17.124;2024-03-25T07:27:36;3.00;;;1.90;;
33347;SDS011;19707;51.158;17.124;2024-03-25T07:30:44;2.80;;;2.20;;
33347;SDS011;19707;51.158;17.124;2024-03-25T07:33:50;3.90;;;2.50;;
33347;SDS011;19707;51.158;17.124;2024-03-25T07:37:00;4.80;;;2.30;;
33347;SDS011;19707;51.158;17.124;2024-03-25T07:40:11;3.40;;;2.40;;
33347;SDS011;19707;51.158;17.124;2024-03-25T07:43:16;3.80;;;2.70;;
33347;SDS011;19707;51.158;17.124;2024-03-25T07:46:24;3.30;;;2.30;;
33347;SDS011;19707;51.158;17.124;2024-03-25T07:49:35;3.00;;;2.70;;
33347;SDS011;19707;51.158;17.124;2024-03-25T07:52:43;3.60;;;2.50;;
33347;SDS011;19707;51.158;17.124;2024-03-25T07:55:50;2.70;;;2.20;;
33347;SDS011;19707;51.158;17.124;2024-03-25T07:59:03;2.80;;;2.40;;
33347;SDS011;19707;51.158;17.124;2024-03-25T08:05:13;2.30;;;1.90;;
33347;SDS011;19707;51.158;17.124;2024-03-25T08:08:21;2.30;;;2.10;;
33347;SDS011;19707;51.158;17.124;2024-03-25T08:11:27;3.50;;;1.70;;
33347;SDS011;19707;51.158;17.124;2024-03-25T08:14:33;2.40;;;1.50;;
33347;SDS011;19707;51.158;17.124;2024-03-25T08:17:41;2.00;;;1.40;;
33347;SDS011;19707;51.158;17.124;2024-03-25T08:20:51;1.90;;;1.50;;
33347;SDS011;19707;51.158;17.124;2024-03-25T08:24:00;3.40;;;0.90;;
33347;SDS011;19707;51.158;17.124;2024-03-25T08:27:05;1.80;;;1.00;;
33347;SDS011;19707;51.158;17.124;2024-03-25T08:30:14;3.30;;;1.30;;
33347;SDS011;19707;51.158;17.124;2024-03-25T08:33:22;1.50;;;1.10;;
33347;SDS011;19707;51.158;17.124;2024-03-25T08:36:26;1.70;;;0.90;;
33347;SDS011;19707;51.158;17.124;2024-03-25T08:39:30;1.50;;;0.90;;
33347;SDS011;19707;51.158;17.124;2024-03-25T08:42:36;1.90;;;1.30;;
33347;SDS011;19707;51.158;17.124;2024-03-25T08:45:45;2.10;;;1.00;;
33347;SDS011;19707;51.158;17.124;2024-03-25T08:52:02;1.70;;;1.20;;
33347;SDS011;19707;51.158;17.124;2024-03-25T08:55:06;1.90;;;1.20;;
33347;SDS011;19707;51.158;17.124;2024-03-25T08:58:12;2.60;;;2.20;;
33347;SDS011;19707;51.158;17.124;2024-03-25T09:01:19;2.70;;;2.40;;
33347;SDS011;19707;51.158;17.124;2024-03-25T09:04:28;3.50;;;3.20;;
33347;SDS011;19707;51.158;17.124;2024-03-25T09:07:34;3.10;;;2.50;;
33347;SDS011;19707;51.158;17.124;2024-03-25T09:10:46;2.10;;;1.90;;
33347;SDS011;19707;51.158;17.124;2024-03-25T09:17:20;1.90;;;1.40;;
33347;SDS011;19707;51.158;17.124;2024-03-25T09:20:33;1.70;;;1.40;;
33347;SDS011;19707;51.158;17.124;2024-03-25T09:23:41;2.60;;;1.00;;
33347;SDS011;19707;51.158;17.124;2024-03-25T09:26:52;1.60;;;0.80;;
33347;SDS011;19707;51.158;17.124;2024-03-25T09:29:57;1.60;;;0.90;;
33347;SDS011;19707;51.158;17.124;2024-03-25T09:33:04;4.80;;;1.70;;
33347;SDS011;19707;51.158;17.124;2024-03-25T09:36:09;5.10;;;2.80;;
33347;SDS011;19707;51.158;17.124;2024-03-25T09:39:17;3.90;;;2.40;;
33347;SDS011;19707;51.158;17.124;2024-03-25T09:42:30;2.90;;;1.70;;
33347;SDS011;19707;51.158;17.124;2024-03-25T09:45:43;2.80;;;2.20;;
33347;SDS011;19707;51.158;17.124;2024-03-25T09:48:52;3.70;;;2.60;;
33347;SDS011;19707;51.158;17.124;2024-03-25T09:52:02;1.90;;;1.30;;
33347;SDS011;19707;51.158;17.124;2024-03-25T09:55:11;3.10;;;1.90;;
33347;SDS011;19707;51.158;17.124;2024-03-25T09:58:21;2.40;;;1.60;;
33347;SDS011;19707;51.158;17.124;2024-03-25T10:01:27;1.60;;;1.20;;
33347;SDS011;19707;51.158;17.124;2024-03-25T10:04:32;2.10;;;1.50;;
33347;SDS011;19707;51.158;17.124;2024-03-25T10:07:41;1.70;;;1.30;;
33347;SDS011;19707;51.158;17.124;2024-03-25T10:10:50;2.50;;;1.20;;
33347;SDS011;19707;51.158;17.124;2024-03-25T10:13:59;2.20;;;1.60;;
33347;SDS011;19707;51.158;17.124;2024-03-25T10:17:04;1.80;;;0.90;;
33347;SDS011;19707;51.158;17.124;2024-03-25T10:20:18;1.60;;;1.00;;
33347;SDS011;19707;51.158;17.124;2024-03-25T10:23:24;2.70;;;1.70;;
33347;SDS011;19707;51.158;17.124;2024-03-25T10:26:36;1.80;;;1.20;;
33347;SDS011;19707;51.158;17.124;2024-03-25T10:29:41;1.10;;;0.90;;
33347;SDS011;19707;51.158;17.124;2024-03-25T10:33:01;1.80;;;0.50;;
33347;SDS011;19707;51.158;17.124;2024-03-25T10:36:10;1.50;;;0.70;;
33347;SDS011;19707;51.158;17.124;2024-03-25T10:39:17;2.40;;;1.30;;
33347;SDS011;19707;51.158;17.124;2024-03-25T10:42:31;2.10;;;1.30;;
33347;SDS011;19707;51.158;17.124;2024-03-25T10:45:49;3.00;;;1.50;;
33347;SDS011;19707;51.158;17.124;2024-03-25T10:49:16;1.80;;;1.10;;
33347;SDS011;19707;51.158;17.124;2024-03-25T10:52:34;1.60;;;0.80;;
33347;SDS011;19707;51.158;17.124;2024-03-25T10:55:41;3.30;;;1.10;;
33347;SDS011;19707;51.158;17.124;2024-03-25T10:58:47;2.20;;;1.40;;
33347;SDS011;19707;51.158;17.124;2024-03-25T11:01:55;2.00;;;1.30;;
33347;SDS011;19707;51.158;17.124;2024-03-25T11:08:14;2.50;;;1.40;;
33347;SDS011;19707;51.158;17.124;2024-03-25T11:11:20;2.80;;;1.30;;
33347;SDS011;19707;51.158;17.124;2024-03-25T11:14:37;1.20;;;0.60;;
33347;SDS011;19707;51.158;17.124;2024-03-25T11:17:49;0.80;;;0.40;;
33347;SDS011;19707;51.158;17.124;2024-03-25T11:21:07;3.60;;;3.00;;
33347;SDS011;19707;51.158;17.124;2024-03-25T11:24:26;2.40;;;1.90;;
33347;SDS011;19707;51.158;17.124;2024-03-25T11:30:50;1.70;;;0.50;;
33347;SDS011;19707;51.158;17.124;2024-03-25T11:34:02;1.60;;;1.10;;
33347;SDS011;19707;51.158;17.124;2024-03-25T11:37:20;1.70;;;1.40;;
33347;SDS011;19707;51.158;17.124;2024-03-25T11:40:24;2.40;;;1.70;;
33347;SDS011;19707;51.158;17.124;2024-03-25T11:48:12;3.40;;;1.80;;
33347;SDS011;19707;51.158;17.124;2024-03-25T11:51:18;3.30;;;1.70;;
33347;SDS011;19707;51.158;17.124;2024-03-25T11:54:32;2.30;;;1.90;;
33347;SDS011;19707;51.158;17.124;2024-03-25T11:57:40;1.90;;;1.20;;
33347;SDS011;19707;51.158;17.124;2024-03-25T12:00:46;1.70;;;1.20;;
33347;SDS011;19707;51.158;17.124;2024-03-25T12:03:55;3.10;;;1.30;;
33347;SDS011;19707;51.158;17.124;2024-03-25T12:07:12;1.70;;;1.50;;
33347;SDS011;19707;51.158;17.124;2024-03-25T12:10:17;2.90;;;1.10;;
33347;SDS011;19707;51.158;17.124;2024-03-25T12:16:57;3.80;;;2.30;;
33347;SDS011;19707;51.158;17.124;2024-03-25T12:20:10;4.30;;;2.40;;
33347;SDS011;19707;51.158;17.124;2024-03-25T12:23:17;2.40;;;1.70;;
33347;SDS011;19707;51.158;17.124;2024-03-25T12:26:21;2.80;;;1.40;;
33347;SDS011;19707;51.158;17.124;2024-03-25T12:29:31;2.50;;;1.90;;
33347;SDS011;19707;51.158;17.124;2024-03-25T12:32:40;3.00;;;1.80;;
33347;SDS011;19707;51.158;17.124;2024-03-25T12:38:57;2.50;;;1.50;;
33347;SDS011;19707;51.158;17.124;2024-03-25T12:42:09;3.30;;;2.30;;
33347;SDS011;19707;51.158;17.124;2024-03-25T12:45:18;2.90;;;2.00;;
33347;SDS011;19707;51.158;17.124;2024-03-25T12:48:24;2.50;;;2.20;;
33347;SDS011;19707;51.158;17.124;2024-03-25T12:51:29;3.50;;;2.60;;
33347;SDS011;19707;51.158;17.124;2024-03-25T12:54:35;3.10;;;2.00;;
33347;SDS011;19707;51.158;17.124;2024-03-25T12:57:47;3.90;;;2.50;;
33347;SDS011;19707;51.158;17.124;2024-03-25T13:00:58;5.60;;;3.20;;
33347;SDS011;19707;51.158;17.124;2024-03-25T13:04:04;4.60;;;2.90;;
33347;SDS011;19707;51.158;17.124;2024-03-25T13:07:15;3.30;;;2.50;;
33347;SDS011;19707;51.158;17.124;2024-03-25T13:10:20;2.90;;;1.80;;
33347;SDS011;19707;51.158;17.124;2024-03-25T13:13:29;2.80;;;2.40;;
33347;SDS011;19707;51.158;17.124;2024-03-25T13:16:43;7.50;;;5.40;;
33347;SDS011;19707;51.158;17.124;2024-03-25T13:19:50;5.90;;;3.70;;
33347;SDS011;19707;51.158;17.124;2024-03-25T13:22:56;4.30;;;2.50;;
33347;SDS011;19707;51.158;17.124;2024-03-25T13:26:04;3.40;;;2.40;;
33347;SDS011;19707;51.158;17.124;2024-03-25T13:32:14;2.30;;;1.40;;
33347;SDS011;19707;51.158;17.124;2024-03-25T13:35:24;2.50;;;1.50;;
33347;SDS011;19707;51.158;17.124;2024-03-25T13:38:33;2.20;;;1.40;;
33347;SDS011;19707;51.158;17.124;2024-03-25T13:41:40;1.60;;;1.10;;
33347;SDS011;19707;51.158;17.124;2024-03-25T13:44:48;1.70;;;1.30;;
33347;SDS011;19707;51.158;17.124;2024-03-25T13:47:53;2.80;;;1.70;;
33347;SDS011;19707;51.158;17.124;2024-03-25T13:51:02;2.30;;;1.40;;
33347;SDS011;19707;51.158;17.124;2024-03-25T13:54:13;1.60;;;1.10;;
33347;SDS011;19707;51.158;17.124;2024-03-25T13:57:18;1.70;;;1.10;;
33347;SDS011;19707;51.158;17.124;2024-03-25T14:00:25;2.10;;;1.20;;
33347;SDS011;19707;51.158;17.124;2024-03-25T14:03:35;2.70;;;1.50;;
33347;SDS011;19707;51.158;17.124;2024-03-25T14:06:41;2.00;;;1.30;;
33347;SDS011;19707;51.158;17.124;2024-03-25T14:09:50;2.00;;;1.70;;
33347;SDS011;19707;51.158;17.124;2024-03-25T14:12:55;2.10;;;1.50;;
33347;SDS011;19707;51.158;17.124;2024-03-25T14:16:06;2.20;;;1.10;;
33347;SDS011;19707;51.158;17.124;2024-03-25T14:19:13;3.30;;;2.90;;
33347;SDS011;19707;51.158;17.124;2024-03-25T14:22:23;3.10;;;1.90;;
33347;SDS011;19707;51.158;17.124;2024-03-25T14:25:28;3.50;;;2.10;;
33347;SDS011;19707;51.158;17.124;2024-03-25T14:28:36;2.60;;;2.10;;
33347;SDS011;19707;51.158;17.124;2024-03-25T14:31:46;1.90;;;1.20;;
33347;SDS011;19707;51.158;17.124;2024-03-25T14:35:00;2.90;;;1.80;;
33347;SDS011;19707;51.158;17.124;2024-03-25T14:38:05;3.10;;;1.90;;
33347;SDS011;19707;51.158;17.124;2024-03-25T14:41:17;2.40;;;2.00;;
33347;SDS011;19707;51.158;17.124;2024-03-25T14:44:25;1.80;;;1.40;;
33347;SDS011;19707;51.158;17.124;2024-03-25T14:47:34;2.60;;;1.30;;
33347;SDS011;19707;51.158;17.124;2024-03-25T14:50:52;2.40;;;1.40;;
33347;SDS011;19707;51.158;17.124;2024-03-25T14:53:59;2.00;;;1.40;;
33347;SDS011;19707;51.158;17.124;2024-03-25T14:57:07;2.30;;;1.30;;
33347;SDS011;19707;51.158;17.124;2024-03-25T15:00:18;1.50;;;0.90;;
33347;SDS011;19707;51.158;17.124;2024-03-25T15:03:32;2.00;;;1.20;;
33347;SDS011;19707;51.158;17.124;2024-03-25T15:06:41;2.50;;;1.60;;
33347;SDS011;19707;51.158;17.124;2024-03-25T15:09:48;2.20;;;1.10;;
33347;SDS011;19707;51.158;17.124;2024-03-25T15:12:56;6.20;;;3.40;;
33347;SDS011;19707;51.158;17.124;2024-03-25T15:16:04;26.60;;;11.90;;
33347;SDS011;19707;51.158;17.124;2024-03-25T15:19:16;7.00;;;4.40;;
33347;SDS011;19707;51.158;17.124;2024-03-25T15:22:25;3.20;;;2.30;;
33347;SDS011;19707;51.158;17.124;2024-03-25T15:25:36;6.60;;;5.10;;
33347;SDS011;19707;51.158;17.124;2024-03-25T15:28:44;5.90;;;4.10;;
33347;SDS011;19707;51.158;17.124;2024-03-25T15:31:48;8.60;;;6.40;;
33347;SDS011;19707;51.158;17.124;2024-03-25T15:34:55;7.70;;;4.10;;
33347;SDS011;19707;51.158;17.124;2024-03-25T15:38:01;3.00;;;1.50;;
33347;SDS011;19707;51.158;17.124;2024-03-25T15:41:14;2.70;;;2.40;;
33347;SDS011;19707;51.158;17.124;2024-03-25T15:49:08;2.80;;;1.70;;
33347;SDS011;19707;51.158;17.124;2024-03-25T15:52:58;2.20;;;1.70;;
33347;SDS011;19707;51.158;17.124;2024-03-25T16:00:25;2.30;;;1.50;;
33347;SDS011;19707;51.158;17.124;2024-03-25T16:03:35;3.10;;;1.70;;
33347;SDS011;19707;51.158;17.124;2024-03-25T16:06:44;3.00;;;2.20;;
33347;SDS011;19707;51.158;17.124;2024-03-25T16:09:49;6.30;;;2.80;;
33347;SDS011;19707;51.158;17.124;2024-03-25T16:13:00;4.40;;;2.80;;
33347;SDS011;19707;51.158;17.124;2024-03-25T16:16:11;2.60;;;2.20;;
33347;SDS011;19707;51.158;17.124;2024-03-25T16:19:18;4.00;;;2.70;;
33347;SDS011;19707;51.158;17.124;2024-03-25T16:22:32;4.80;;;2.40;;
33347;SDS011;19707;51.158;17.124;2024-03-25T16:25:35;3.10;;;2.00;;
33347;SDS011;19707;51.158;17.124;2024-03-25T16:28:46;5.10;;;3.40;;
33347;SDS011;19707;51.158;17.124;2024-03-25T16:31:54;3.30;;;1.90;;
33347;SDS011;19707;51.158;17.124;2024-03-25T16:35:03;4.30;;;2.30;;
33347;SDS011;19707;51.158;17.124;2024-03-25T16:38:08;3.40;;;2.40;;
33347;SDS011;19707;51.158;17.124;2024-03-25T16:41:17;4.10;;;2.90;;
33347;SDS011;19707;51.158;17.124;2024-03-25T16:44:28;6.70;;;5.10;;
33347;SDS011;19707;51.158;17.124;2024-03-25T16:47:40;7.00;;;4.50;;
33347;SDS011;19707;51.158;17.124;2024-03-25T16:50:52;3.80;;;2.40;;
33347;SDS011;19707;51.158;17.124;2024-03-25T16:53:58;4.40;;;2.60;;
33347;SDS011;19707;51.158;17.124;2024-03-25T16:57:08;6.30;;;3.50;;
33347;SDS011;19707;51.158;17.124;2024-03-25T17:00:19;5.70;;;3.10;;
33347;SDS011;19707;51.158;17.124;2024-03-25T17:03:23;8.50;;;4.60;;
33347;SDS011;19707;51.158;17.124;2024-03-25T17:06:31;8.10;;;5.20;;
33347;SDS011;19707;51.158;17.124;2024-03-25T17:09:42;5.30;;;3.40;;
33347;SDS011;19707;51.158;17.124;2024-03-25T17:12:49;5.80;;;2.80;;
33347;SDS011;19707;51.158;17.124;2024-03-25T17:15:59;4.80;;;3.00;;
33347;SDS011;19707;51.158;17.124;2024-03-25T17:19:32;5.10;;;3.60;;
33347;SDS011;19707;51.158;17.124;2024-03-25T17:26:54;6.10;;;2.70;;
33347;SDS011;19707;51.158;17.124;2024-03-25T17:30:02;4.40;;;2.80;;
33347;SDS011;19707;51.158;17.124;2024-03-25T17:33:18;4.00;;;2.30;;
33347;SDS011;19707;51.158;17.124;2024-03-25T17:36:34;4.60;;;2.50;;
33347;SDS011;19707;51.158;17.124;2024-03-25T17:47:33;6.20;;;3.00;;
33347;SDS011;19707;51.158;17.124;2024-03-25T17:50:54;7.40;;;4.10;;
33347;SDS011;19707;51.158;17.124;2024-03-25T17:54:03;7.90;;;4.10;;
33347;SDS011;19707;51.158;17.124;2024-03-25T17:57:11;5.80;;;3.90;;
33347;SDS011;19707;51.158;17.124;2024-03-25T18:00:20;4.90;;;4.00;;
33347;SDS011;19707;51.158;17.124;2024-03-25T18:03:29;7.00;;;4.10;;
33347;SDS011;19707;51.158;17.124;2024-03-25T18:06:39;9.90;;;4.50;;
33347;SDS011;19707;51.158;17.124;2024-03-25T18:09:48;10.30;;;5.90;;
33347;SDS011;19707;51.158;17.124;2024-03-25T18:12:56;10.00;;;5.80;;
33347;SDS011;19707;51.158;17.124;2024-03-25T18:16:09;7.50;;;5.00;;
33347;SDS011;19707;51.158;17.124;2024-03-25T18:19:20;7.50;;;4.90;;
33347;SDS011;19707;51.158;17.124;2024-03-25T18:22:36;9.50;;;5.20;;
33347;SDS011;19707;51.158;17.124;2024-03-25T18:25:43;9.90;;;5.50;;
33347;SDS011;19707;51.158;17.124;2024-03-25T18:29:00;8.50;;;5.10;;
33347;SDS011;19707;51.158;17.124;2024-03-25T18:32:12;8.60;;;6.10;;
33347;SDS011;19707;51.158;17.124;2024-03-25T18:35:21;8.10;;;5.00;;
33347;SDS011;19707;51.158;17.124;2024-03-25T18:38:26;9.80;;;5.80;;
33347;SDS011;19707;51.158;17.124;2024-03-25T18:41:32;6.30;;;4.30;;
33347;SDS011;19707;51.158;17.124;2024-03-25T18:44:38;12.10;;;7.90;;
33347;SDS011;19707;51.158;17.124;2024-03-25T18:47:42;11.90;;;6.50;;
33347;SDS011;19707;51.158;17.124;2024-03-25T18:50:50;10.60;;;6.90;;
33347;SDS011;19707;51.158;17.124;2024-03-25T18:54:01;8.20;;;5.90;;
33347;SDS011;19707;51.158;17.124;2024-03-25T18:57:04;9.60;;;6.40;;
33347;SDS011;19707;51.158;17.124;2024-03-25T19:00:15;9.50;;;5.50;;
33347;SDS011;19707;51.158;17.124;2024-03-25T19:03:20;7.70;;;5.90;;
33347;SDS011;19707;51.158;17.124;2024-03-25T19:06:24;9.90;;;5.10;;
33347;SDS011;19707;51.158;17.124;2024-03-25T19:09:27;7.60;;;5.30;;
33347;SDS011;19707;51.158;17.124;2024-03-25T19:12:30;9.30;;;6.30;;
33347;SDS011;19707;51.158;17.124;2024-03-25T19:15:34;9.30;;;7.20;;
33347;SDS011;19707;51.158;17.124;2024-03-25T19:18:37;8.60;;;5.70;;
33347;SDS011;19707;51.158;17.124;2024-03-25T19:21:41;10.50;;;7.50;;
33347;SDS011;19707;51.158;17.124;2024-03-25T19:24:46;12.10;;;7.60;;
33347;SDS011;19707;51.158;17.124;2024-03-25T19:27:55;9.90;;;6.80;;
33347;SDS011;19707;51.158;17.124;2024-03-25T19:31:01;10.70;;;7.00;;
33347;SDS011;19707;51.158;17.124;2024-03-25T19:34:05;14.50;;;7.80;;
33347;SDS011;19707;51.158;17.124;2024-03-25T19:37:11;11.40;;;8.10;;
33347;SDS011;19707;51.158;17.124;2024-03-25T19:40:27;14.40;;;7.80;;
33347;SDS011;19707;51.158;17.124;2024-03-25T19:43:32;18.10;;;9.70;;
33347;SDS011;19707;51.158;17.124;2024-03-25T19:46:38;22.30;;;11.30;;
33347;SDS011;19707;51.158;17.124;2024-03-25T19:49:54;21.50;;;11.20;;
33347;SDS011;19707;51.158;17.124;2024-03-25T19:53:04;21.40;;;11.80;;